Time;durP1;ratioP1;P1;durP2;ratioP2;P2;SDS_P1;SDS_P2;PMS_P1;PMS_P2;Temp;Humidity;BMP_temperature;BMP_pressure;BME280_temperature;BME280_humidity;BME280_pressure;Samples;Min_cycle;Max_cycle;Signal;HPM_P1;HPM_P2
2023/01/20 00:00:23;;;;;;;6.47;4.10;;;;;;;;;;5068859;28;20049;-70
2023/01/20 00:02:49;;;;;;;7.35;5.25;;;;;;;;;;5066210;28;20049;-72
2023/01/20 00:05:16;;;;;;;6.65;4.57;;;;;;;;;;5069489;28;20051;-70
2023/01/20 00:07:42;;;;;;;6.43;4.70;;;;;;;;;;5083295;28;20395;-69
2023/01/20 00:10:09;;;;;;;5.50;4.40;;;;;;;;;;5069267;28;20160;-72
2023/01/20 00:12:35;;;;;;;6.50;4.25;;;;;;;;;;5049062;28;20530;-72
2023/01/20 00:15:02;;;;;;;5.75;3.97;;;;;;;;;;5053567;28;20033;-71
2023/01/20 00:17:28;;;;;;;6.03;4.70;;;;;;;;;;5067048;28;20053;-72
2023/01/20 00:19:54;;;;;;;10.23;4.50;;;;;;;;;;5066214;28;20053;-70
2023/01/20 00:22:21;;;;;;;7.18;5.00;;;;;;;;;;5065774;28;20545;-71
2023/01/20 00:24:47;;;;;;;9.18;5.65;;;;;;;;;;5068312;28;20053;-72
2023/01/20 00:27:14;;;;;;;7.05;5.32;;;;;;;;;;5068665;28;20135;-72
2023/01/20 00:29:43;;;;;;;8.18;5.55;;;;;;;;;;5067953;28;20049;-72
2023/01/20 00:32:10;;;;;;;8.18;5.47;;;;;;;;;;5068457;28;20042;-72
2023/01/20 00:34:36;;;;;;;7.43;5.85;;;;;;;;;;5066524;28;20064;-70
2023/01/20 00:37:02;;;;;;;10.00;6.65;;;;;;;;;;5066834;28;20053;-71
2023/01/20 00:39:28;;;;;;;9.85;6.57;;;;;;;;;;5067935;28;20056;-72
2023/01/20 00:41:55;;;;;;;12.20;6.45;;;;;;;;;;5068354;28;20053;-72
2023/01/20 00:44:21;;;;;;;11.88;6.72;;;;;;;;;;5057911;28;20089;-70
2023/01/20 00:46:47;;;;;;;13.52;8.75;;;;;;;;;;5066978;28;20045;-71
2023/01/20 00:49:14;;;;;;;10.48;7.57;;;;;;;;;;5064853;28;20059;-71
2023/01/20 00:51:40;;;;;;;14.05;9.18;;;;;;;;;;5067621;28;20060;-69
2023/01/20 00:54:06;;;;;;;17.58;8.73;;;;;;;;;;5067744;28;20060;-71
2023/01/20 00:56:33;;;;;;;12.82;8.35;;;;;;;;;;5067698;28;20053;-72
2023/01/20 00:58:59;;;;;;;14.75;9.63;;;;;;;;;;5067579;28;20148;-72
2023/01/20 01:01:25;;;;;;;13.68;9.15;;;;;;;;;;5067286;28;20129;-71
2023/01/20 01:03:53;;;;;;;13.80;8.77;;;;;;;;;;5065152;28;20053;-72
2023/01/20 01:06:20;;;;;;;17.73;9.57;;;;;;;;;;5066661;28;20053;-72
2023/01/20 01:08:46;;;;;;;15.88;8.98;;;;;;;;;;5068109;28;20442;-71
2023/01/20 01:11:13;;;;;;;15.80;9.65;;;;;;;;;;5056586;28;20156;-72
2023/01/20 01:13:39;;;;;;;13.73;9.48;;;;;;;;;;5067471;28;20601;-73
2023/01/20 01:16:10;;;;;;;15.18;9.80;;;;;;;;;;5050143;28;20064;-72
2023/01/20 01:18:37;;;;;;;15.00;10.13;;;;;;;;;;5064649;28;20045;-70
2023/01/20 01:21:08;;;;;;;17.55;9.60;;;;;;;;;;5066460;28;20045;-71
2023/01/20 01:23:34;;;;;;;16.58;11.10;;;;;;;;;;5064008;28;20056;-72
2023/01/20 01:26:01;;;;;;;17.08;10.80;;;;;;;;;;5062119;28;20565;-71
2023/01/20 01:28:27;;;;;;;17.65;11.98;;;;;;;;;;5067276;28;20045;-72
2023/01/20 01:30:53;;;;;;;19.60;10.88;;;;;;;;;;5065910;28;20057;-72
2023/01/20 01:33:20;;;;;;;21.52;12.13;;;;;;;;;;5067363;28;20053;-72
2023/01/20 01:35:59;;;;;;;21.05;12.68;;;;;;;;;;5068296;28;20478;-68
2023/01/20 01:38:26;;;;;;;21.20;12.82;;;;;;;;;;5067097;28;20049;-72
2023/01/20 01:40:53;;;;;;;20.55;12.30;;;;;;;;;;5066253;28;20499;-71
2023/01/20 01:43:21;;;;;;;26.00;14.43;;;;;;;;;;5064573;28;20640;-72
2023/01/20 01:45:47;;;;;;;17.95;11.98;;;;;;;;;;5081125;28;20056;-72
2023/01/20 01:48:13;;;;;;;19.17;12.10;;;;;;;;;;5066893;28;20491;-72
2023/01/20 01:50:45;;;;;;;22.58;13.30;;;;;;;;;;5066656;28;20580;-72
2023/01/20 01:53:12;;;;;;;19.85;12.80;;;;;;;;;;5067364;28;20108;-72
2023/01/20 01:55:41;;;;;;;21.23;11.63;;;;;;;;;;5066254;28;20515;-71
2023/01/20 01:58:10;;;;;;;24.55;13.63;;;;;;;;;;5062054;28;20060;-70
2023/01/20 02:00:37;;;;;;;23.02;13.43;;;;;;;;;;5062600;28;20484;-71
2023/01/20 02:03:04;;;;;;;22.15;12.75;;;;;;;;;;5066915;28;20083;-72
2023/01/20 02:05:31;;;;;;;24.98;15.10;;;;;;;;;;5066076;28;20451;-72
2023/01/20 02:07:58;;;;;;;23.40;14.30;;;;;;;;;;5065926;28;20049;-72
2023/01/20 02:10:25;;;;;;;23.05;13.77;;;;;;;;;;5052179;28;20056;-71
2023/01/20 02:12:51;;;;;;;21.50;13.73;;;;;;;;;;5059977;28;20131;-72
2023/01/20 02:15:22;;;;;;;27.75;14.52;;;;;;;;;;5064321;28;20049;-72
2023/01/20 02:18:07;;;;;;;23.65;13.10;;;;;;;;;;5066453;28;20185;-70
2023/01/20 02:20:34;;;;;;;28.20;15.55;;;;;;;;;;5065751;28;20132;-71
2023/01/20 02:23:03;;;;;;;28.92;14.95;;;;;;;;;;5066807;28;20049;-71
2023/01/20 02:25:41;;;;;;;29.27;16.10;;;;;;;;;;5066436;28;20057;-72
2023/01/20 02:28:07;;;;;;;27.15;15.40;;;;;;;;;;5066824;28;20049;-71
2023/01/20 02:30:52;;;;;;;25.02;14.52;;;;;;;;;;5064177;28;20057;-71
2023/01/20 02:33:34;;;;;;;28.67;15.80;;;;;;;;;;5065499;28;20049;-73
2023/01/20 02:36:00;;;;;;;26.27;14.65;;;;;;;;;;5064132;28;20118;-72
2023/01/20 02:38:45;;;;;;;29.73;15.77;;;;;;;;;;5066100;28;20053;-72
2023/01/20 02:41:34;;;;;;;27.48;15.18;;;;;;;;;;5066942;28;20561;-72
2023/01/20 02:44:15;;;;;;;26.10;15.35;;;;;;;;;;5065852;28;20072;-71
2023/01/20 02:46:48;;;;;;;26.77;15.68;;;;;;;;;;5067143;28;20116;-72
2023/01/20 02:49:20;;;;;;;33.60;18.15;;;;;;;;;;5064723;28;21052;-72
2023/01/20 02:51:56;;;;;;;27.77;17.15;;;;;;;;;;5065922;28;20499;-71
2023/01/20 02:54:24;;;;;;;31.40;18.58;;;;;;;;;;5066539;28;20051;-72
2023/01/20 02:56:52;;;;;;;31.80;16.67;;;;;;;;;;5065831;28;20052;-71
2023/01/20 02:59:21;;;;;;;33.13;16.90;;;;;;;;;;5064428;28;20049;-72
2023/01/20 03:01:47;;;;;;;37.40;17.65;;;;;;;;;;5068716;28;20049;-72
2023/01/20 03:04:15;;;;;;;32.83;17.33;;;;;;;;;;5070602;28;20132;-70
2023/01/20 03:06:46;;;;;;;36.83;18.58;;;;;;;;;;5069157;28;20538;-72
2023/01/20 03:09:14;;;;;;;34.70;18.35;;;;;;;;;;5069633;28;20055;-68
2023/01/20 03:11:44;;;;;;;34.53;18.02;;;;;;;;;;5060537;28;20061;-72
2023/01/20 03:14:12;;;;;;;39.58;20.23;;;;;;;;;;5061276;28;20069;-71
2023/01/20 03:16:39;;;;;;;39.13;19.55;;;;;;;;;;5069823;28;20053;-72
2023/01/20 03:19:06;;;;;;;36.15;19.15;;;;;;;;;;5068472;28;20572;-72
2023/01/20 03:21:33;;;;;;;42.63;18.95;;;;;;;;;;5069176;28;20073;-71
2023/01/20 03:24:00;;;;;;;37.13;19.27;;;;;;;;;;5070049;28;20053;-71
2023/01/20 03:26:27;;;;;;;36.45;18.15;;;;;;;;;;5069013;28;20184;-72
2023/01/20 03:28:53;;;;;;;42.55;20.52;;;;;;;;;;5065731;28;20053;-72
2023/01/20 03:31:29;;;;;;;36.20;18.95;;;;;;;;;;5055914;28;20048;-71
2023/01/20 03:33:57;;;;;;;36.35;19.45;;;;;;;;;;5068245;28;20119;-69
2023/01/20 03:36:25;;;;;;;39.45;19.48;;;;;;;;;;5069088;28;20053;-72
2023/01/20 03:38:52;;;;;;;38.28;19.13;;;;;;;;;;5069610;28;20074;-72
2023/01/20 03:41:18;;;;;;;40.20;20.40;;;;;;;;;;5068576;28;20073;-70
2023/01/20 03:43:55;;;;;;;44.83;22.40;;;;;;;;;;5068724;28;20057;-72
2023/01/20 03:46:27;;;;;;;44.72;20.45;;;;;;;;;;5069626;28;20063;-72
2023/01/20 03:49:00;;;;;;;41.85;20.33;;;;;;;;;;5069308;28;20068;-72
2023/01/20 03:51:32;;;;;;;48.42;20.85;;;;;;;;;;5068794;28;20052;-72
2023/01/20 03:54:00;;;;;;;43.30;21.17;;;;;;;;;;5068431;28;20137;-72
2023/01/20 03:56:34;;;;;;;44.95;21.33;;;;;;;;;;5068695;28;20086;-72
2023/01/20 03:59:01;;;;;;;47.05;22.15;;;;;;;;;;5069259;28;20053;-72
2023/01/20 04:01:33;;;;;;;55.17;24.23;;;;;;;;;;5069394;28;20049;-71
2023/01/20 04:04:01;;;;;;;44.75;21.85;;;;;;;;;;5057355;28;20095;-72
2023/01/20 04:06:28;;;;;;;53.78;22.48;;;;;;;;;;5068300;28;20548;-72
2023/01/20 04:08:59;;;;;;;47.83;20.90;;;;;;;;;;5068395;28;20525;-72
2023/01/20 04:11:26;;;;;;;45.47;21.20;;;;;;;;;;5068171;28;20057;-72
2023/01/20 04:13:53;;;;;;;44.60;22.27;;;;;;;;;;5062577;28;20049;-72
2023/01/20 04:16:20;;;;;;;45.13;21.35;;;;;;;;;;5069659;28;20839;-73
2023/01/20 04:18:48;;;;;;;48.78;22.90;;;;;;;;;;5067082;28;20049;-72
2023/01/20 04:21:18;;;;;;;57.83;22.67;;;;;;;;;;5068688;28;20136;-72
2023/01/20 04:23:51;;;;;;;50.38;22.08;;;;;;;;;;5068031;28;20372;-71
2023/01/20 04:26:17;;;;;;;47.25;19.83;;;;;;;;;;5068175;28;20522;-72
2023/01/20 04:28:43;;;;;;;49.55;22.80;;;;;;;;;;5069196;28;20051;-70
2023/01/20 04:31:10;;;;;;;47.75;22.67;;;;;;;;;;5068971;28;20049;-72
2023/01/20 04:33:54;;;;;;;43.78;20.42;;;;;;;;;;5066638;28;20073;-72
2023/01/20 04:36:20;;;;;;;45.67;21.70;;;;;;;;;;5061851;28;20063;-72
2023/01/20 04:38:47;;;;;;;49.40;21.38;;;;;;;;;;5069114;28;20049;-72
2023/01/20 04:41:13;;;;;;;49.85;22.08;;;;;;;;;;5059859;28;20088;-72
2023/01/20 04:43:42;;;;;;;51.92;22.40;;;;;;;;;;5069342;28;20060;-71
2023/01/20 04:46:09;;;;;;;52.15;23.02;;;;;;;;;;5066391;28;20545;-71
2023/01/20 04:48:35;;;;;;;53.65;23.25;;;;;;;;;;5062058;28;20669;-72
2023/01/20 04:51:02;;;;;;;51.75;23.25;;;;;;;;;;5068497;28;20147;-72
2023/01/20 04:53:29;;;;;;;48.28;22.05;;;;;;;;;;5067632;28;20832;-72
2023/01/20 04:55:55;;;;;;;52.67;21.70;;;;;;;;;;5068222;28;20496;-72
2023/01/20 04:58:21;;;;;;;49.13;21.25;;;;;;;;;;5067001;28;20528;-71
2023/01/20 05:00:48;;;;;;;49.72;21.90;;;;;;;;;;5067742;28;20045;-72
2023/01/20 05:03:14;;;;;;;51.10;24.10;;;;;;;;;;5065978;28;20487;-73
2023/01/20 05:05:40;;;;;;;49.95;20.75;;;;;;;;;;5067888;28;20064;-71
2023/01/20 05:08:07;;;;;;;49.30;22.27;;;;;;;;;;5066740;28;20060;-72
2023/01/20 05:10:34;;;;;;;48.88;21.83;;;;;;;;;;5067675;28;20048;-73
2023/01/20 05:13:00;;;;;;;40.80;20.33;;;;;;;;;;5067980;28;20527;-72
2023/01/20 05:15:26;;;;;;;50.83;20.10;;;;;;;;;;5068125;28;20048;-73
2023/01/20 05:17:53;;;;;;;46.08;21.08;;;;;;;;;;5065406;28;20124;-70
2023/01/20 05:20:19;;;;;;;43.72;20.40;;;;;;;;;;5048058;28;20190;-72
2023/01/20 05:22:46;;;;;;;50.40;22.02;;;;;;;;;;5056885;28;20053;-68
2023/01/20 05:25:12;;;;;;;42.20;19.52;;;;;;;;;;5054096;28;20754;-71
2023/01/20 05:27:39;;;;;;;53.22;20.92;;;;;;;;;;5064398;28;20560;-73
2023/01/20 05:30:06;;;;;;;45.92;21.27;;;;;;;;;;5067563;28;20525;-70
2023/01/20 05:32:32;;;;;;;46.25;20.83;;;;;;;;;;5065307;28;20522;-72
2023/01/20 05:34:58;;;;;;;54.20;22.38;;;;;;;;;;5067938;28;20049;-73
2023/01/20 05:37:25;;;;;;;53.45;22.75;;;;;;;;;;5066793;28;20049;-72
2023/01/20 05:39:51;;;;;;;54.70;23.15;;;;;;;;;;5066641;28;20427;-71
2023/01/20 05:42:17;;;;;;;48.08;22.52;;;;;;;;;;5067771;28;20065;-73
2023/01/20 05:44:44;;;;;;;54.58;23.90;;;;;;;;;;5067390;28;20056;-70
2023/01/20 05:47:10;;;;;;;50.85;22.17;;;;;;;;;;5064899;28;20053;-73
2023/01/20 05:49:36;;;;;;;50.78;22.13;;;;;;;;;;5067388;28;20500;-72
2023/01/20 05:52:03;;;;;;;55.92;23.25;;;;;;;;;;5063871;28;20057;-69
2023/01/20 05:54:29;;;;;;;43.05;20.30;;;;;;;;;;5064419;28;20064;-72
2023/01/20 05:56:55;;;;;;;53.00;23.38;;;;;;;;;;5065329;28;20075;-70
2023/01/20 05:59:22;;;;;;;52.55;23.05;;;;;;;;;;5062283;28;20449;-70
2023/01/20 06:01:48;;;;;;;49.25;22.98;;;;;;;;;;5064237;28;20083;-71
2023/01/20 06:04:15;;;;;;;45.20;21.33;;;;;;;;;;5065706;28;20049;-71
2023/01/20 06:06:42;;;;;;;59.70;25.17;;;;;;;;;;5046970;28;20058;-72
2023/01/20 06:09:09;;;;;;;56.15;25.25;;;;;;;;;;5063301;28;20195;-71
2023/01/20 06:11:36;;;;;;;56.33;23.98;;;;;;;;;;5068647;28;20502;-72
2023/01/20 06:14:02;;;;;;;59.47;25.48;;;;;;;;;;5066221;28;20132;-71
2023/01/20 06:16:28;;;;;;;60.45;24.92;;;;;;;;;;5065132;28;20049;-71
2023/01/20 06:18:56;;;;;;;65.45;26.60;;;;;;;;;;5069435;28;20578;-71
2023/01/20 06:21:23;;;;;;;60.55;25.27;;;;;;;;;;5067981;28;20491;-70
2023/01/20 06:23:50;;;;;;;67.68;26.42;;;;;;;;;;5067058;28;20052;-72
2023/01/20 06:26:16;;;;;;;56.58;26.35;;;;;;;;;;5065606;28;20455;-70
2023/01/20 06:28:42;;;;;;;61.92;26.83;;;;;;;;;;5066284;28;20053;-72
2023/01/20 06:31:10;;;;;;;55.20;25.80;;;;;;;;;;5065697;28;20180;-71
2023/01/20 06:33:36;;;;;;;67.47;26.48;;;;;;;;;;5066572;28;20562;-71
2023/01/20 06:36:03;;;;;;;60.72;25.85;;;;;;;;;;5064934;28;20051;-70
2023/01/20 06:38:31;;;;;;;60.58;24.70;;;;;;;;;;5066258;28;20055;-70
2023/01/20 06:40:58;;;;;;;67.65;25.48;;;;;;;;;;5061040;28;20053;-69
2023/01/20 06:43:24;;;;;;;66.15;27.30;;;;;;;;;;5065946;28;20053;-71
2023/01/20 06:45:51;;;;;;;57.80;24.60;;;;;;;;;;5065722;28;20052;-70
2023/01/20 06:48:17;;;;;;;60.00;25.73;;;;;;;;;;5065896;28;20068;-72
2023/01/20 06:50:43;;;;;;;62.75;25.10;;;;;;;;;;5064007;28;20515;-70
2023/01/20 06:53:12;;;;;;;52.70;23.33;;;;;;;;;;5060925;28;20053;-69
2023/01/20 06:55:38;;;;;;;58.13;25.15;;;;;;;;;;5063249;28;20053;-70
2023/01/20 06:58:05;;;;;;;53.30;23.08;;;;;;;;;;5065561;28;20084;-71
2023/01/20 07:00:31;;;;;;;64.40;23.40;;;;;;;;;;5062683;28;20045;-71
2023/01/20 07:02:58;;;;;;;55.38;23.52;;;;;;;;;;5063730;28;20057;-69
2023/01/20 07:05:24;;;;;;;57.85;24.08;;;;;;;;;;5062354;28;20092;-72
2023/01/20 07:07:50;;;;;;;52.63;21.58;;;;;;;;;;5063836;28;20053;-70
2023/01/20 07:10:16;;;;;;;49.55;22.67;;;;;;;;;;5062624;28;20431;-70
2023/01/20 07:12:43;;;;;;;48.95;21.48;;;;;;;;;;5063882;28;20060;-71
2023/01/20 07:15:09;;;;;;;47.97;22.00;;;;;;;;;;5063976;28;20051;-68
2023/01/20 07:17:36;;;;;;;49.88;19.83;;;;;;;;;;5062566;28;20053;-71
2023/01/20 07:20:02;;;;;;;51.42;21.92;;;;;;;;;;5058986;28;20080;-69
2023/01/20 07:22:29;;;;;;;46.67;20.73;;;;;;;;;;5067563;28;20049;-70
2023/01/20 07:24:55;;;;;;;38.88;17.17;;;;;;;;;;5062045;28;20187;-68
2023/01/20 07:27:21;;;;;;;44.92;20.23;;;;;;;;;;5063058;28;20053;-68
2023/01/20 07:29:48;;;;;;;49.53;21.15;;;;;;;;;;5063092;28;20053;-71
2023/01/20 07:32:14;;;;;;;44.90;20.08;;;;;;;;;;5060790;28;20111;-70
2023/01/20 07:34:41;;;;;;;45.53;19.55;;;;;;;;;;5063716;28;20053;-70
2023/01/20 07:37:07;;;;;;;49.53;21.48;;;;;;;;;;5063609;28;20055;-71
2023/01/20 07:39:35;;;;;;;50.30;22.92;;;;;;;;;;5062292;28;20049;-70
2023/01/20 07:42:01;;;;;;;50.63;21.90;;;;;;;;;;5061126;28;20883;-70
2023/01/20 07:44:27;;;;;;;47.78;21.92;;;;;;;;;;5061085;28;20056;-71
2023/01/20 07:46:54;;;;;;;54.17;23.25;;;;;;;;;;5050991;28;20535;-71
2023/01/20 07:49:20;;;;;;;46.22;20.33;;;;;;;;;;5065327;28;20053;-69
2023/01/20 07:51:47;;;;;;;49.38;21.33;;;;;;;;;;5064521;28;20059;-71
2023/01/20 07:54:13;;;;;;;52.40;21.77;;;;;;;;;;5067204;28;20576;-71
2023/01/20 07:56:40;;;;;;;53.70;22.00;;;;;;;;;;5062453;28;20057;-69
2023/01/20 07:59:06;;;;;;;42.65;19.42;;;;;;;;;;5064637;28;20503;-71
2023/01/20 08:01:33;;;;;;;46.85;20.30;;;;;;;;;;5066667;28;20141;-69
2023/01/20 08:03:59;;;;;;;47.25;21.77;;;;;;;;;;5066699;28;20578;-70
2023/01/20 08:06:26;;;;;;;49.67;21.83;;;;;;;;;;5063989;28;20136;-68
2023/01/20 08:08:52;;;;;;;49.05;21.27;;;;;;;;;;5065514;28;20156;-72
2023/01/20 08:11:20;;;;;;;46.58;21.83;;;;;;;;;;5066853;28;20561;-72
2023/01/20 08:13:46;;;;;;;49.45;22.33;;;;;;;;;;5066804;28;20156;-70
2023/01/20 08:16:14;;;;;;;51.75;22.17;;;;;;;;;;5064632;28;20056;-70
2023/01/20 08:18:41;;;;;;;56.20;23.02;;;;;;;;;;5066664;28;20148;-71
2023/01/20 08:21:15;;;;;;;50.15;22.55;;;;;;;;;;5064591;28;21957;-71
2023/01/20 08:23:42;;;;;;;51.35;23.00;;;;;;;;;;5067025;28;20071;-71
2023/01/20 08:26:08;;;;;;;51.72;23.20;;;;;;;;;;5065525;28;20108;-70
2023/01/20 08:28:35;;;;;;;55.45;24.30;;;;;;;;;;5064794;28;20063;-71
2023/01/20 08:31:06;;;;;;;51.85;21.92;;;;;;;;;;5065074;28;20515;-70
2023/01/20 08:33:33;;;;;;;49.63;22.38;;;;;;;;;;5067812;28;20053;-70
2023/01/20 08:36:06;;;;;;;50.45;22.48;;;;;;;;;;5066346;28;20053;-69
2023/01/20 08:38:33;;;;;;;55.95;22.55;;;;;;;;;;5066094;28;20546;-71
2023/01/20 08:40:59;;;;;;;51.00;22.17;;;;;;;;;;5064895;28;20056;-71
2023/01/20 08:43:26;;;;;;;56.47;23.70;;;;;;;;;;5072697;28;20143;-70
2023/01/20 08:46:03;;;;;;;65.35;25.42;;;;;;;;;;5080085;28;20055;-72
2023/01/20 08:48:30;;;;;;;46.95;21.55;;;;;;;;;;5080412;28;20691;-71
2023/01/20 08:50:56;;;;;;;52.42;25.60;;;;;;;;;;5065866;28;20053;-71
2023/01/20 08:53:23;;;;;;;55.28;22.92;;;;;;;;;;5070289;28;20053;-71
2023/01/20 08:55:56;;;;;;;54.80;23.00;;;;;;;;;;5065934;28;20052;-71
2023/01/20 08:58:23;;;;;;;59.95;24.88;;;;;;;;;;5072566;28;20049;-69
2023/01/20 09:00:51;;;;;;;57.58;23.45;;;;;;;;;;5064707;28;20095;-71
2023/01/20 09:03:17;;;;;;;62.40;22.98;;;;;;;;;;5054915;28;20115;-71
2023/01/20 09:05:43;;;;;;;51.30;23.90;;;;;;;;;;5064270;28;20080;-72
2023/01/20 09:08:10;;;;;;;47.25;21.23;;;;;;;;;;5065682;28;20057;-71
2023/01/20 09:10:36;;;;;;;50.15;22.75;;;;;;;;;;5060791;28;20050;-70
2023/01/20 09:13:03;;;;;;;42.85;20.15;;;;;;;;;;5062296;28;20051;-71
2023/01/20 09:15:30;;;;;;;47.30;22.27;;;;;;;;;;5065047;28;20119;-71
2023/01/20 09:17:57;;;;;;;48.22;21.70;;;;;;;;;;5064670;28;20135;-71
2023/01/20 09:20:24;;;;;;;47.25;22.25;;;;;;;;;;5062883;28;20048;-71
2023/01/20 09:22:51;;;;;;;50.30;22.58;;;;;;;;;;5063741;28;20088;-70
2023/01/20 09:25:17;;;;;;;48.38;21.17;;;;;;;;;;5065038;28;20515;-71
2023/01/20 09:27:44;;;;;;;40.83;19.92;;;;;;;;;;5064674;28;20063;-70
2023/01/20 09:30:10;;;;;;;44.65;21.35;;;;;;;;;;5063121;28;20057;-70
2023/01/20 09:32:37;;;;;;;45.00;20.20;;;;;;;;;;5059923;28;20053;-69
2023/01/20 09:35:03;;;;;;;42.88;19.92;;;;;;;;;;5062704;28;20081;-72
2023/01/20 09:46:02;;;;;;;39.10;18.92;;;;;;;;;;5064798;28;20134;-73
2023/01/20 09:54:24;;;;;;;37.38;19.70;;;;;;;;;;5064112;28;20620;-70
2023/01/20 09:56:52;;;;;;;38.25;18.63;;;;;;;;;;5067631;28;20449;-71
2023/01/20 09:59:22;;;;;;;39.85;19.00;;;;;;;;;;5061773;28;20045;-71
2023/01/20 10:01:50;;;;;;;37.28;18.73;;;;;;;;;;5061720;28;20060;-70
2023/01/20 10:04:24;;;;;;;37.35;18.15;;;;;;;;;;5062774;28;20533;-69
2023/01/20 10:06:57;;;;;;;42.17;19.33;;;;;;;;;;5064171;28;20140;-68
2023/01/20 10:09:42;;;;;;;38.17;18.60;;;;;;;;;;5064683;28;20140;-73
2023/01/20 10:12:09;;;;;;;33.58;16.48;;;;;;;;;;5062979;28;20053;-71
2023/01/20 10:14:40;;;;;;;41.78;18.45;;;;;;;;;;5062651;28;20049;-71
2023/01/20 10:17:11;;;;;;;33.63;17.95;;;;;;;;;;5063715;28;20045;-70
2023/01/20 10:19:41;;;;;;;43.58;19.77;;;;;;;;;;5063109;28;20216;-72
2023/01/20 10:22:25;;;;;;;40.15;17.85;;;;;;;;;;5062273;28;20512;-70
2023/01/20 10:24:57;;;;;;;39.58;17.55;;;;;;;;;;5066968;28;20135;-69
2023/01/20 10:27:25;;;;;;;34.15;18.35;;;;;;;;;;5062361;28;20559;-68
2023/01/20 10:29:54;;;;;;;33.15;16.55;;;;;;;;;;5063333;28;20057;-69
2023/01/20 10:32:32;;;;;;;38.35;17.83;;;;;;;;;;5062133;28;20130;-69
2023/01/20 10:35:02;;;;;;;33.22;17.45;;;;;;;;;;5062902;28;20581;-69
2023/01/20 10:37:29;;;;;;;38.78;17.63;;;;;;;;;;5058052;28;20527;-72
2023/01/20 10:40:12;;;;;;;31.30;17.60;;;;;;;;;;5063954;28;20055;-70
2023/01/20 10:42:39;;;;;;;32.60;17.20;;;;;;;;;;5064561;28;20103;-70
2023/01/20 10:45:12;;;;;;;34.97;16.55;;;;;;;;;;5067223;28;20111;-71
2023/01/20 10:47:42;;;;;;;30.85;17.10;;;;;;;;;;5071641;28;20530;-70
2023/01/20 10:50:27;;;;;;;33.42;16.40;;;;;;;;;;5063954;28;20049;-70
2023/01/20 10:52:56;;;;;;;30.67;15.48;;;;;;;;;;5061077;28;20140;-70
2023/01/20 10:55:42;;;;;;;32.95;16.40;;;;;;;;;;5061312;28;20045;-68
2023/01/20 10:58:11;;;;;;;33.75;15.50;;;;;;;;;;5064547;28;20111;-71
2023/01/20 11:00:38;;;;;;;32.88;15.90;;;;;;;;;;5061296;28;20060;-69
2023/01/20 11:03:05;;;;;;;31.13;15.75;;;;;;;;;;5062940;28;20045;-69
2023/01/20 11:05:36;;;;;;;28.35;15.50;;;;;;;;;;5070654;28;20055;-69
2023/01/20 11:08:08;;;;;;;35.00;15.88;;;;;;;;;;5064069;28;20366;-69
2023/01/20 11:10:35;;;;;;;31.02;16.38;;;;;;;;;;5063030;28;20091;-69
2023/01/20 11:13:01;;;;;;;33.83;17.20;;;;;;;;;;5064313;28;20523;-69
2023/01/20 11:15:29;;;;;;;31.42;15.60;;;;;;;;;;5062990;28;20558;-68
2023/01/20 11:18:14;;;;;;;37.00;17.13;;;;;;;;;;5063453;28;20045;-70
2023/01/20 11:20:47;;;;;;;31.13;15.02;;;;;;;;;;5064243;28;20053;-68
2023/01/20 11:23:29;;;;;;;27.38;15.93;;;;;;;;;;5082521;28;20049;-70
2023/01/20 11:25:56;;;;;;;27.95;15.10;;;;;;;;;;5065809;28;20135;-70
2023/01/20 11:28:23;;;;;;;27.90;15.77;;;;;;;;;;5067948;28;20053;-68
2023/01/20 11:30:51;;;;;;;24.65;13.73;;;;;;;;;;5066317;28;20041;-70
2023/01/20 11:33:22;;;;;;;27.67;14.38;;;;;;;;;;5068314;28;20513;-69
2023/01/20 11:35:57;;;;;;;26.05;14.20;;;;;;;;;;5067397;28;20062;-69
2023/01/20 11:38:25;;;;;;;30.40;15.77;;;;;;;;;;5066706;28;20057;-69
2023/01/20 11:40:53;;;;;;;29.55;14.35;;;;;;;;;;5067376;28;20064;-69
2023/01/20 11:43:36;;;;;;;24.80;14.82;;;;;;;;;;5065563;28;20132;-68
2023/01/20 11:46:18;;;;;;;26.55;14.50;;;;;;;;;;5058507;28;20057;-69
2023/01/20 11:48:45;;;;;;;27.80;14.57;;;;;;;;;;5065549;28;20057;-69
2023/01/20 11:51:19;;;;;;;28.80;15.75;;;;;;;;;;5067407;28;20112;-69
2023/01/20 11:53:46;;;;;;;31.38;16.15;;;;;;;;;;5066396;28;20056;-70
2023/01/20 11:56:25;;;;;;;26.02;15.10;;;;;;;;;;5066762;28;20059;-68
2023/01/20 11:58:54;;;;;;;29.95;15.77;;;;;;;;;;5056450;28;20055;-68
2023/01/20 12:01:22;;;;;;;31.10;15.80;;;;;;;;;;5070684;28;20489;-69
2023/01/20 12:04:00;;;;;;;26.52;15.80;;;;;;;;;;5083113;28;20566;-68
2023/01/20 12:06:32;;;;;;;29.40;15.57;;;;;;;;;;5065469;28;20060;-69
2023/01/20 12:09:01;;;;;;;27.42;15.27;;;;;;;;;;5066310;28;20060;-69
2023/01/20 12:11:29;;;;;;;29.85;15.52;;;;;;;;;;5073988;28;20540;-69
2023/01/20 12:14:19;;;;;;;28.80;15.73;;;;;;;;;;5066787;28;20500;-69
2023/01/20 12:16:52;;;;;;;27.60;14.40;;;;;;;;;;5066789;28;20409;-69
2023/01/20 12:19:19;;;;;;;25.08;14.07;;;;;;;;;;5065265;28;20060;-68
2023/01/20 12:21:49;;;;;;;31.48;16.50;;;;;;;;;;5066217;28;20053;-69
2023/01/20 12:24:26;;;;;;;31.05;15.98;;;;;;;;;;5082282;28;20143;-67
2023/01/20 12:27:14;;;;;;;26.83;15.75;;;;;;;;;;5066435;28;20139;-70
2023/01/20 12:29:43;;;;;;;28.08;14.95;;;;;;;;;;5066155;28;20140;-69
2023/01/20 12:32:10;;;;;;;29.73;16.63;;;;;;;;;;5066205;28;20151;-69
2023/01/20 12:34:37;;;;;;;29.98;15.52;;;;;;;;;;5064671;28;20095;-70
2023/01/20 12:37:07;;;;;;;32.55;16.70;;;;;;;;;;5065321;28;20111;-68
2023/01/20 12:39:52;;;;;;;29.90;16.75;;;;;;;;;;5065728;28;20053;-69
2023/01/20 12:42:27;;;;;;;31.58;15.98;;;;;;;;;;5066077;28;20059;-69
2023/01/20 12:45:08;;;;;;;31.85;15.98;;;;;;;;;;5064607;28;20132;-69
2023/01/20 12:47:41;;;;;;;28.85;14.95;;;;;;;;;;5046041;28;20053;-68
2023/01/20 12:50:19;;;;;;;32.90;15.93;;;;;;;;;;5060838;28;20064;-69
2023/01/20 12:52:57;;;;;;;27.98;15.93;;;;;;;;;;5062245;28;20049;-68
2023/01/20 12:55:23;;;;;;;25.67;14.70;;;;;;;;;;5068468;28;20056;-69
2023/01/20 12:58:08;;;;;;;27.40;14.23;;;;;;;;;;5077835;28;20056;-69
2023/01/20 13:00:38;;;;;;;27.57;15.77;;;;;;;;;;5074479;28;20136;-69
2023/01/20 13:03:27;;;;;;;28.40;16.17;;;;;;;;;;5065392;28;20306;-68
2023/01/20 13:06:14;;;;;;;27.90;15.48;;;;;;;;;;5071361;28;20053;-69
2023/01/20 13:08:46;;;;;;;30.83;16.15;;;;;;;;;;5073729;28;20056;-68
2023/01/20 13:11:22;;;;;;;27.58;14.63;;;;;;;;;;5067050;28;20575;-68
2023/01/20 13:13:58;;;;;;;31.00;16.75;;;;;;;;;;5065745;28;20053;-69
2023/01/20 13:16:33;;;;;;;32.65;15.90;;;;;;;;;;5068734;28;20066;-68
2023/01/20 13:19:18;;;;;;;26.95;15.25;;;;;;;;;;5066561;28;20061;-68
2023/01/20 13:21:45;;;;;;;31.98;15.88;;;;;;;;;;5063851;28;20114;-69
2023/01/20 13:24:28;;;;;;;29.90;15.75;;;;;;;;;;5064322;28;20064;-69
2023/01/20 13:26:55;;;;;;;29.17;15.95;;;;;;;;;;5065475;28;20487;-69
2023/01/20 13:29:40;;;;;;;30.75;16.55;;;;;;;;;;5064376;28;20053;-69
2023/01/20 13:32:25;;;;;;;27.73;16.27;;;;;;;;;;5073966;28;20049;-68
2023/01/20 13:34:51;;;;;;;25.13;14.52;;;;;;;;;;5073569;28;20041;-68
2023/01/20 13:37:25;;;;;;;28.63;15.48;;;;;;;;;;5063021;28;20057;-68
2023/01/20 13:39:53;;;;;;;28.85;16.08;;;;;;;;;;5063880;28;20097;-68
2023/01/20 13:42:26;;;;;;;29.13;14.85;;;;;;;;;;5062940;28;20045;-68
2023/01/20 13:45:11;;;;;;;28.23;14.35;;;;;;;;;;5065185;28;20053;-69
2023/01/20 13:47:59;;;;;;;38.13;14.10;;;;;;;;;;5064926;28;20103;-68
2023/01/20 13:50:36;;;;;;;22.27;13.48;;;;;;;;;;5064106;28;20596;-69
2023/01/20 13:53:08;;;;;;;19.83;12.18;;;;;;;;;;5078239;28;20087;-68
2023/01/20 13:55:44;;;;;;;24.23;14.02;;;;;;;;;;5066380;28;20056;-69
2023/01/20 13:58:11;;;;;;;;;;;;;;;;;;5079026;28;20151;-69
2023/01/20 14:00:37;;;;;;;23.52;12.35;;;;;;;;;;5084238;28;46709;-69
2023/01/20 14:03:12;;;;;;;28.00;12.50;;;;;;;;;;5084475;28;20060;-69
2023/01/20 14:05:39;;;;;;;25.38;13.95;;;;;;;;;;5071125;28;20068;-69
2023/01/20 14:08:12;;;;;;;26.75;14.10;;;;;;;;;;5067251;28;20103;-70
2023/01/20 14:10:38;;;;;;;23.23;13.00;;;;;;;;;;5063930;28;20057;-69
2023/01/20 14:13:15;;;;;;;21.83;12.65;;;;;;;;;;5063899;28;20608;-69
2023/01/20 14:15:41;;;;;;;24.15;13.68;;;;;;;;;;5063075;28;20060;-69
2023/01/20 14:18:12;;;;;;;25.58;13.63;;;;;;;;;;5062646;28;20490;-69
2023/01/20 14:20:39;;;;;;;19.05;12.15;;;;;;;;;;5064984;28;20069;-69
2023/01/20 14:23:16;;;;;;;24.70;13.75;;;;;;;;;;5071997;28;20084;-70
2023/01/20 14:25:42;;;;;;;22.13;11.90;;;;;;;;;;5044522;28;20049;-68
2023/01/20 14:28:18;;;;;;;21.92;12.65;;;;;;;;;;5062863;28;21310;-69
2023/01/20 14:30:45;;;;;;;17.95;10.32;;;;;;;;;;5051145;28;20045;-68
2023/01/20 14:33:14;;;;;;;24.63;14.07;;;;;;;;;;5060676;28;20143;-69
2023/01/20 14:35:41;;;;;;;24.55;13.65;;;;;;;;;;5060868;28;20045;-69
2023/01/20 14:38:14;;;;;;;25.15;13.30;;;;;;;;;;5062580;28;20059;-69
2023/01/20 14:40:41;;;;;;;26.25;13.35;;;;;;;;;;5061840;28;20249;-69
2023/01/20 14:43:16;;;;;;;20.73;12.85;;;;;;;;;;5064303;28;20071;-69
2023/01/20 14:45:46;;;;;;;20.52;11.95;;;;;;;;;;5059345;28;20568;-68